Terminal Aerodrome Forecast
Issued by NWS

Home | Current Version | Previous Version | Text Only | Print | Product List | Glossary On
Versions: 1 2 3 4 5 6 7 8 9 10 11 12
251
FTUS43 KFGF 302326
TAFDVL
TAF
KDVL 302326Z 0100/0124 05013G22KT P6SM SCT250
     FM010300 04005KT P6SM SKC
     FM011600 01008KT P6SM FEW250=

USA.gov is the U.S. government's official web portal to all federal, state and local government web resources and services.